createdAt,value
2022-12-08T00:01:03.830Z,36.33
2022-12-08T00:03:30.685Z,30.75
2022-12-08T00:06:12.720Z,32.60
2022-12-08T00:08:54.768Z,33.63
2022-12-08T00:11:21.469Z,27.92
2022-12-08T00:13:48.122Z,33.92
2022-12-08T00:16:14.905Z,30.35
2022-12-08T00:18:41.637Z,35.28
2022-12-08T00:21:08.321Z,34.75
2022-12-08T00:23:35.009Z,32.83
2022-12-08T00:26:03.890Z,33.70
2022-12-08T00:28:31.763Z,35.78
2022-12-08T00:30:58.413Z,32.45
2022-12-08T00:33:25.444Z,32.92
2022-12-08T00:35:52.511Z,40.50
2022-12-08T00:38:19.182Z,32.03
2022-12-08T00:40:46.968Z,38.60
2022-12-08T00:43:14.284Z,29.90
2022-12-08T00:45:41.063Z,29.05
2022-12-08T00:48:08.142Z,31.83
2022-12-08T00:50:34.902Z,28.02
2022-12-08T00:53:01.578Z,28.75
2022-12-08T00:55:28.271Z,34.70
2022-12-08T00:57:54.985Z,31.88
2022-12-08T01:00:21.802Z,33.30
2022-12-08T01:02:48.599Z,30.10
2022-12-08T01:05:15.449Z,29.65
2022-12-08T01:07:42.258Z,27.23
2022-12-08T01:10:09.425Z,28.17
2022-12-08T01:12:36.146Z,34.95
2022-12-08T01:15:03.125Z,28.42
2022-12-08T01:17:29.812Z,32.53
2022-12-08T01:19:56.533Z,32.33
2022-12-08T01:22:23.133Z,34.72
2022-12-08T01:24:49.757Z,35.17
2022-12-08T01:27:16.728Z,30.90
2022-12-08T01:29:43.387Z,37.05
2022-12-08T01:32:10.051Z,37.20
2022-12-08T01:34:36.738Z,32.80
2022-12-08T01:37:03.471Z,34.40
2022-12-08T01:39:30.725Z,39.08
2022-12-08T01:41:57.390Z,34.78
2022-12-08T01:44:24.035Z,32.20
2022-12-08T01:46:53.074Z,37.65
2022-12-08T01:49:25.712Z,35.03
2022-12-08T01:52:02.965Z,40.95
2022-12-08T01:54:34.640Z,35.78
2022-12-08T01:57:08.221Z,28.88
2022-12-08T01:59:39.673Z,34.97
2022-12-08T02:02:06.459Z,32.75
2022-12-08T02:04:33.226Z,31.50
2022-12-08T02:07:04.930Z,31.60
2022-12-08T02:09:36.146Z,27.15
2022-12-08T02:12:03.059Z,29.80
2022-12-08T02:14:29.875Z,28.00
2022-12-08T02:17:10.914Z,33.67
2022-12-08T02:20:09.572Z,32.67
2022-12-08T02:22:42.930Z,34.22
2022-12-08T02:25:16.503Z,34.17
2022-12-08T02:27:49.327Z,40.08
2022-12-08T02:30:22.532Z,41.17
2022-12-08T02:33:04.417Z,34.85
2022-12-08T02:35:46.336Z,34.95
2022-12-08T02:38:43.482Z,38.17
2022-12-08T02:41:26.360Z,35.72
2022-12-08T02:44:01.174Z,40.63
2022-12-08T02:46:33.258Z,34.70
2022-12-08T02:49:00.737Z,39.13
2022-12-08T02:51:27.482Z,35.45
2022-12-08T02:53:58.586Z,33.85
2022-12-08T02:56:37.547Z,36.13
2022-12-08T02:59:26.010Z,37.00
2022-12-08T03:02:13.632Z,32.42
2022-12-08T03:05:11.096Z,31.65
2022-12-08T03:10:23.528Z,34.05
2022-12-08T03:12:58.898Z,39.05
2022-12-08T03:15:25.924Z,30.95
2022-12-08T03:17:56.985Z,26.55
2022-12-08T03:20:26.183Z,32.80
2022-12-08T03:22:56.377Z,33.70
2022-12-08T03:25:26.281Z,34.58
2022-12-08T03:27:53.887Z,36.72
2022-12-08T03:30:20.646Z,30.38
2022-12-08T03:32:50.481Z,38.00
2022-12-08T03:35:21.954Z,36.00
2022-12-08T03:37:48.619Z,39.15
2022-12-08T03:40:20.163Z,39.92
2022-12-08T03:42:46.950Z,38.15
2022-12-08T03:45:13.646Z,43.63
2022-12-08T03:47:40.296Z,42.42
2022-12-08T03:50:07.561Z,39.53
2022-12-08T03:52:34.227Z,36.95
2022-12-08T03:55:00.859Z,34.35
2022-12-08T03:57:27.510Z,33.75
2022-12-08T03:59:54.124Z,37.35
2022-12-08T04:02:20.845Z,36.55
2022-12-08T04:04:47.728Z,38.20
2022-12-08T04:07:14.415Z,35.53
2022-12-08T04:09:42.783Z,40.00
2022-12-08T04:12:09.724Z,37.95
2022-12-08T04:14:36.595Z,42.92
2022-12-08T04:17:03.301Z,38.60
2022-12-08T04:19:32.081Z,37.50
2022-12-08T04:21:58.797Z,38.55
2022-12-08T04:24:25.490Z,34.38
2022-12-08T04:26:52.238Z,31.17
2022-12-08T04:29:19.019Z,30.77
2022-12-08T04:31:45.787Z,35.25
2022-12-08T04:34:12.552Z,37.47
2022-12-08T04:36:39.188Z,35.75
2022-12-08T04:39:06.288Z,34.67
2022-12-08T04:41:33.231Z,36.20
2022-12-08T04:43:59.896Z,38.78
2022-12-08T04:46:26.573Z,42.42
2022-12-08T04:48:53.221Z,39.78
2022-12-08T04:51:20.754Z,33.80
2022-12-08T04:53:47.827Z,39.95
2022-12-08T04:56:17.783Z,41.30
2022-12-08T04:58:45.291Z,33.70
2022-12-08T05:01:12.200Z,37.78
2022-12-08T05:03:39.266Z,41.70
2022-12-08T05:06:06.239Z,42.40
2022-12-08T05:08:33.403Z,39.40
2022-12-08T05:11:10.092Z,42.88
2022-12-08T05:13:36.820Z,34.58
2022-12-08T05:16:09.466Z,41.05
2022-12-08T05:18:37.425Z,82.93
2022-12-08T05:21:04.946Z,44.78
2022-12-08T05:23:32.023Z,42.67
2022-12-08T05:25:58.836Z,39.13
2022-12-08T05:28:41.216Z,43.63
2022-12-08T05:31:09.226Z,35.75
2022-12-08T05:33:35.981Z,37.00
2022-12-08T05:36:02.682Z,54.95
2022-12-08T05:38:29.564Z,33.63
2022-12-08T05:40:56.253Z,36.00
2022-12-08T05:43:22.905Z,32.55
2022-12-08T05:45:50.163Z,33.22
2022-12-08T05:48:16.918Z,43.13
2022-12-08T05:50:51.986Z,32.83
2022-12-08T05:53:20.373Z,39.75
2022-12-08T05:55:47.519Z,38.25
2022-12-08T05:58:17.496Z,32.83
2022-12-08T06:00:45.324Z,35.33
2022-12-08T06:03:14.647Z,36.83
2022-12-08T06:05:43.026Z,35.10
2022-12-08T06:08:10.251Z,35.83
2022-12-08T06:10:39.965Z,39.20
2022-12-08T06:13:06.695Z,42.13
2022-12-08T06:15:35.689Z,38.45
2022-12-08T06:18:02.381Z,37.78
2022-12-08T06:20:29.063Z,39.05
2022-12-08T06:22:56.482Z,37.92
2022-12-08T06:25:23.517Z,35.92
2022-12-08T06:27:50.462Z,39.88
2022-12-08T06:30:17.831Z,37.70
2022-12-08T06:32:44.753Z,44.25
2022-12-08T06:35:11.436Z,41.60
2022-12-08T06:37:38.142Z,40.13
2022-12-08T06:40:05.572Z,38.20
2022-12-08T06:42:43.655Z,40.80
2022-12-08T06:45:16.193Z,39.10
2022-12-08T06:47:43.273Z,40.38
2022-12-08T06:50:13.528Z,45.10
2022-12-08T06:53:00.790Z,43.60
2022-12-08T06:56:01.303Z,39.60
2022-12-08T06:58:55.275Z,37.40
2022-12-08T07:01:24.579Z,47.83
2022-12-08T07:03:51.358Z,44.78
2022-12-08T07:06:24.365Z,39.42
2022-12-08T07:08:51.801Z,39.92
2022-12-08T07:11:21.866Z,46.17
2022-12-08T07:13:50.285Z,45.70
2022-12-08T07:16:16.988Z,44.50
2022-12-08T07:18:44.238Z,49.28
2022-12-08T07:21:14.869Z,43.83
2022-12-08T07:23:42.579Z,46.03
2022-12-08T07:26:12.030Z,43.85
2022-12-08T07:28:40.525Z,42.83
2022-12-08T07:31:08.462Z,41.58
2022-12-08T07:33:36.178Z,44.92
2022-12-08T07:36:06.521Z,43.65
2022-12-08T07:38:33.682Z,48.50
2022-12-08T07:41:00.764Z,43.22
2022-12-08T07:43:27.459Z,45.35
2022-12-08T07:45:54.287Z,42.63
2022-12-08T07:48:20.977Z,41.15
2022-12-08T07:50:47.934Z,54.47
2022-12-08T07:53:15.165Z,55.88
2022-12-08T07:55:43.670Z,48.25
2022-12-08T07:58:11.578Z,46.75
2022-12-08T08:00:38.631Z,48.85
2022-12-08T08:03:06.299Z,47.42
2022-12-08T08:05:33.123Z,43.03
2022-12-08T08:07:59.795Z,48.97
2022-12-08T08:10:26.766Z,50.28
2022-12-08T08:12:53.530Z,51.08
2022-12-08T08:15:21.318Z,51.38
2022-12-08T08:17:51.554Z,50.13
2022-12-08T08:20:19.324Z,44.97
2022-12-08T08:22:47.893Z,38.08
2022-12-08T08:25:15.647Z,39.85
2022-12-08T08:27:42.705Z,32.65
2022-12-08T08:30:16.598Z,42.03
2022-12-08T08:32:46.811Z,41.88
2022-12-08T08:35:13.518Z,40.50
2022-12-08T08:37:43.149Z,44.45
2022-12-08T08:40:13.855Z,37.25
2022-12-08T08:42:40.730Z,40.00
2022-12-08T08:45:07.922Z,37.20
2022-12-08T08:47:34.607Z,37.35
2022-12-08T08:50:01.228Z,34.13
2022-12-08T08:52:27.938Z,35.63
2022-12-08T08:54:54.614Z,42.15
2022-12-08T08:57:25.710Z,40.67
2022-12-08T08:59:53.494Z,38.47
2022-12-08T09:02:21.284Z,46.10
2022-12-08T09:04:48.435Z,40.13
2022-12-08T09:07:16.107Z,39.60
2022-12-08T09:09:43.037Z,40.85
2022-12-08T09:12:10.509Z,41.92
2022-12-08T09:14:37.346Z,42.80
2022-12-08T09:17:04.551Z,44.67
2022-12-08T09:19:31.416Z,39.75
2022-12-08T09:21:58.107Z,35.88
2022-12-08T09:24:24.783Z,37.58
2022-12-08T09:26:51.525Z,38.30
2022-12-08T09:29:18.262Z,39.15
2022-12-08T09:31:45.084Z,37.22
2022-12-08T09:34:12.412Z,35.60
2022-12-08T09:36:39.827Z,38.97
2022-12-08T09:39:06.902Z,38.42
2022-12-08T09:41:40.635Z,35.90
2022-12-08T09:44:39.267Z,37.28
2022-12-08T09:49:45.858Z,33.80
2022-12-08T09:52:23.103Z,32.03
2022-12-08T09:54:49.934Z,35.90
2022-12-08T09:57:20.848Z,32.45
2022-12-08T09:59:54.867Z,39.38
2022-12-08T10:02:24.512Z,35.72
2022-12-08T10:04:51.482Z,37.45
2022-12-08T10:07:27.550Z,34.40
2022-12-08T10:10:18.779Z,31.52
2022-12-08T10:12:46.417Z,33.08
2022-12-08T10:15:42.416Z,34.88
2022-12-08T10:18:29.059Z,34.97
2022-12-08T10:21:05.365Z,30.60
2022-12-08T10:26:07.048Z,28.35
2022-12-08T10:28:37.633Z,27.08
2022-12-08T10:31:15.655Z,26.13
2022-12-08T10:33:43.712Z,28.63
2022-12-08T10:36:10.717Z,26.17
2022-12-08T10:38:39.133Z,30.10
2022-12-08T10:41:14.620Z,24.58
2022-12-08T10:43:46.416Z,26.37
2022-12-08T10:46:18.496Z,28.77
2022-12-08T10:48:56.242Z,27.70
2022-12-08T10:51:27.385Z,27.80
2022-12-08T10:53:54.180Z,29.63
2022-12-08T10:56:29.177Z,22.55
2022-12-08T10:59:14.921Z,27.05
2022-12-08T11:01:45.290Z,25.90
2022-12-08T11:04:17.477Z,23.70
2022-12-08T11:06:45.422Z,24.13
2022-12-08T11:09:31.188Z,22.73
2022-12-08T11:12:07.942Z,22.40
2022-12-08T11:14:55.074Z,21.98
2022-12-08T11:17:21.749Z,23.02
2022-12-08T11:19:57.201Z,24.73
2022-12-08T11:22:43.835Z,24.58
2022-12-08T11:25:15.972Z,25.08
2022-12-08T11:27:45.742Z,26.48
2022-12-08T11:30:15.690Z,24.52
2022-12-08T11:32:44.931Z,25.95
2022-12-08T11:35:21.535Z,25.85
2022-12-08T11:37:48.577Z,27.33
2022-12-08T11:40:34.377Z,21.65
2022-12-08T11:43:19.527Z,31.20
2022-12-08T11:45:49.448Z,25.27
2022-12-08T11:48:23.064Z,28.17
2022-12-08T11:50:56.296Z,28.10
2022-12-08T11:53:43.581Z,28.20
2022-12-08T11:56:22.604Z,32.35
2022-12-08T11:58:56.007Z,29.63
2022-12-08T12:01:25.186Z,24.67
2022-12-08T12:04:12.678Z,26.33
2022-12-08T12:07:04.791Z,29.10
2022-12-08T12:09:58.063Z,24.83
2022-12-08T12:12:52.190Z,24.23
2022-12-08T12:15:35.218Z,22.58
2022-12-08T12:18:16.549Z,26.17
2022-12-08T12:21:01.393Z,26.45
2022-12-08T12:23:29.055Z,31.10
2022-12-08T12:26:01.159Z,24.17
2022-12-08T12:28:34.257Z,19.40
2022-12-08T12:31:07.157Z,19.90
2022-12-08T12:33:35.459Z,13.82
2022-12-08T12:36:05.405Z,19.05
2022-12-08T12:38:54.945Z,16.75
2022-12-08T12:41:28.643Z,21.17
2022-12-08T12:44:24.092Z,20.27
2022-12-08T12:46:50.716Z,21.30
2022-12-08T12:49:49.693Z,17.73
2022-12-08T12:52:16.304Z,19.13
2022-12-08T12:55:03.392Z,19.60
2022-12-08T12:57:39.680Z,20.23
2022-12-08T13:00:09.713Z,18.90
2022-12-08T13:02:36.564Z,29.52
2022-12-08T13:05:16.797Z,25.20
2022-12-08T13:08:03.348Z,19.77
2022-12-08T13:10:40.612Z,20.58
2022-12-08T13:13:08.357Z,19.95
2022-12-08T13:15:38.641Z,20.27
2022-12-08T13:18:07.711Z,19.60
2022-12-08T13:20:42.369Z,21.95
2022-12-08T13:23:25.220Z,27.08
2022-12-08T13:25:53.784Z,20.40
2022-12-08T13:28:27.449Z,22.33
2022-12-08T13:31:01.915Z,19.98
2022-12-08T13:33:32.857Z,29.67
2022-12-08T13:36:23.730Z,18.15
2022-12-08T13:38:56.018Z,18.20
2022-12-08T13:41:29.614Z,20.40
2022-12-08T13:44:39.161Z,22.80
2022-12-08T13:58:31.913Z,16.33
2022-12-08T14:01:22.681Z,19.38
2022-12-08T14:04:20.338Z,19.10
2022-12-08T14:06:38.205Z,20.75
2022-12-08T14:09:11.552Z,19.75
2022-12-08T14:11:41.433Z,16.73
2022-12-08T14:14:27.200Z,16.83
2022-12-08T14:17:06.815Z,17.10
2022-12-08T14:19:35.262Z,19.48
2022-12-08T14:22:13.051Z,18.90
2022-12-08T14:24:40.737Z,17.70
2022-12-08T14:27:12.798Z,15.25
2022-12-08T14:29:50.509Z,18.33
2022-12-08T14:32:32.755Z,17.08
2022-12-08T14:35:11.422Z,15.60
2022-12-08T14:37:42.298Z,20.30
2022-12-08T14:40:25.667Z,19.25
2022-12-08T14:42:54.246Z,19.42
2022-12-08T14:45:21.545Z,21.48
2022-12-08T14:47:52.367Z,19.75
2022-12-08T14:50:49.575Z,19.92
2022-12-08T14:53:18.136Z,21.33
2022-12-08T14:55:47.803Z,20.20
2022-12-08T14:58:22.187Z,23.67
2022-12-08T15:00:52.201Z,22.23
2022-12-08T15:03:22.207Z,27.60
2022-12-08T15:05:52.857Z,18.55
2022-12-08T15:08:19.591Z,22.45
2022-12-08T15:10:48.277Z,20.27
2022-12-08T15:13:16.444Z,22.70
2022-12-08T15:15:58.383Z,25.00
2022-12-08T15:18:40.768Z,22.70
2022-12-08T15:21:09.987Z,26.90
2022-12-08T15:23:45.032Z,22.25
2022-12-08T15:26:22.681Z,25.80
2022-12-08T15:28:49.632Z,23.70
2022-12-08T15:31:18.476Z,23.90
2022-12-08T15:33:45.539Z,30.63
2022-12-08T15:36:12.264Z,27.15
2022-12-08T15:38:39.409Z,28.67
2022-12-08T15:41:10.143Z,25.20
2022-12-08T15:43:39.882Z,28.55
2022-12-08T15:46:06.659Z,27.80
2022-12-08T15:48:33.337Z,30.52
2022-12-08T15:51:00.222Z,30.55
2022-12-08T15:53:26.919Z,30.33
2022-12-08T15:58:57.891Z,27.35
2022-12-08T16:01:26.631Z,33.75
2022-12-08T16:07:19.792Z,51.83
2022-12-08T16:09:36.621Z,65.40
2022-12-08T16:12:18.924Z,59.05
2022-12-08T16:17:33.660Z,66.60
2022-12-08T16:20:01.136Z,70.28
2022-12-08T16:25:20.328Z,62.15
2022-12-08T16:30:36.802Z,51.67
2022-12-08T16:33:04.133Z,41.80
2022-12-08T16:35:31.163Z,32.63
2022-12-08T16:37:58.323Z,36.80
2022-12-08T16:40:25.047Z,33.67
2022-12-08T16:42:51.761Z,36.63
2022-12-08T16:45:21.627Z,35.75
2022-12-08T16:47:49.458Z,30.70
2022-12-08T16:50:20.272Z,33.33
2022-12-08T16:52:48.888Z,31.45
2022-12-08T16:55:19.334Z,33.47
2022-12-08T16:57:47.339Z,32.33
2022-12-08T17:00:18.736Z,38.75
2022-12-08T17:02:45.617Z,31.05
2022-12-08T17:05:15.305Z,42.50
2022-12-08T17:07:43.483Z,34.50
2022-12-08T17:10:12.724Z,51.17
2022-12-08T17:12:39.524Z,47.35
2022-12-08T17:15:08.772Z,52.65
2022-12-08T17:17:36.330Z,56.78
2022-12-08T17:20:05.820Z,46.25
2022-12-08T17:22:35.012Z,54.50
2022-12-08T17:25:02.793Z,42.40
2022-12-08T17:27:29.708Z,40.75
2022-12-08T17:29:56.503Z,44.42
2022-12-08T17:32:23.703Z,49.88
2022-12-08T17:34:50.622Z,42.22
2022-12-08T17:37:17.926Z,39.40
2022-12-08T17:39:44.721Z,38.10
2022-12-08T17:42:11.542Z,43.47
2022-12-08T17:44:38.231Z,40.80
2022-12-08T17:47:05.563Z,41.70
2022-12-08T17:49:34.031Z,38.50
2022-12-08T17:52:04.770Z,34.72
2022-12-08T17:54:31.527Z,33.42
2022-12-08T17:56:59.096Z,37.17
2022-12-08T17:59:28.082Z,36.58
2022-12-08T18:01:55.792Z,44.55
2022-12-08T18:04:23.514Z,46.83
2022-12-08T18:06:50.400Z,40.83
2022-12-08T18:09:17.365Z,46.05
2022-12-08T18:11:44.615Z,42.92
2022-12-08T18:14:12.410Z,41.30
2022-12-08T18:16:42.417Z,37.92
2022-12-08T18:19:10.839Z,48.75
2022-12-08T18:21:38.015Z,40.65
2022-12-08T18:24:05.517Z,45.60
2022-12-08T18:26:32.886Z,48.78
2022-12-08T18:29:00.080Z,43.17
2022-12-08T18:31:27.123Z,39.88
2022-12-08T18:33:54.102Z,42.15
2022-12-08T18:36:24.544Z,44.67
2022-12-08T18:38:52.090Z,41.85
2022-12-08T18:41:23.469Z,37.95
2022-12-08T18:43:50.642Z,47.72
2022-12-08T18:46:17.444Z,42.80
2022-12-08T18:48:49.236Z,40.08
2022-12-08T18:51:19.480Z,39.10
2022-12-08T18:53:46.567Z,41.60
2022-12-08T18:56:29.885Z,44.45
2022-12-08T18:59:03.839Z,53.60
2022-12-08T19:01:32.764Z,44.72
2022-12-08T19:06:48.336Z,46.72
2022-12-08T19:09:15.890Z,43.47
2022-12-08T19:11:42.950Z,40.97
2022-12-08T19:14:10.683Z,42.60
2022-12-08T19:16:37.722Z,42.53
2022-12-08T19:19:05.031Z,45.78
2022-12-08T19:21:32.585Z,47.63
2022-12-08T19:24:00.022Z,45.67
2022-12-08T19:26:28.611Z,43.67
2022-12-08T19:28:56.205Z,46.05
2022-12-08T19:31:22.982Z,40.33
2022-12-08T19:33:50.098Z,37.53
2022-12-08T19:36:20.219Z,38.63
2022-12-08T19:39:03.021Z,41.03
2022-12-08T19:41:45.555Z,40.92
2022-12-08T19:44:38.363Z,39.13
2022-12-08T19:47:05.566Z,41.63
2022-12-08T19:49:32.786Z,43.25
2022-12-08T19:51:59.979Z,43.40
2022-12-08T19:54:28.546Z,49.08
2022-12-08T19:56:55.295Z,46.50
2022-12-08T19:59:22.764Z,47.75
2022-12-08T20:01:50.096Z,44.63
2022-12-08T20:04:17.894Z,49.92
2022-12-08T20:06:45.604Z,46.10
2022-12-08T20:09:13.806Z,51.25
2022-12-08T20:11:41.368Z,50.60
2022-12-08T20:14:08.102Z,50.25
2022-12-08T20:16:35.429Z,52.25
2022-12-08T20:19:02.650Z,46.83
2022-12-08T20:21:29.758Z,50.50
2022-12-08T20:23:56.592Z,49.15
2022-12-08T20:26:23.846Z,46.65
2022-12-08T20:28:51.166Z,42.33
2022-12-08T20:31:21.639Z,49.28
2022-12-08T20:33:48.672Z,47.40
2022-12-08T20:36:18.767Z,40.40
2022-12-08T20:38:46.792Z,45.67
2022-12-08T20:41:16.117Z,47.22
2022-12-08T20:43:45.735Z,46.13
2022-12-08T20:46:14.886Z,45.47
2022-12-08T20:48:43.570Z,44.55
2022-12-08T20:51:15.605Z,49.17
2022-12-08T20:53:42.775Z,52.35
2022-12-08T20:56:15.697Z,46.72
2022-12-08T20:58:42.886Z,48.85
2022-12-08T21:01:12.388Z,51.90
2022-12-08T21:03:39.760Z,50.40
2022-12-08T21:06:07.482Z,53.58
2022-12-08T21:08:35.126Z,46.05
2022-12-08T21:11:02.309Z,62.13
2022-12-08T21:13:29.148Z,59.88
2022-12-08T21:15:56.220Z,55.75
2022-12-08T21:18:23.631Z,55.83
2022-12-08T21:20:51.582Z,52.83
2022-12-08T21:23:18.866Z,48.40
2022-12-08T21:25:47.371Z,48.78
2022-12-08T21:28:14.203Z,47.92
2022-12-08T21:30:41.815Z,49.47
2022-12-08T21:33:09.243Z,51.08
2022-12-08T21:35:36.061Z,44.70
2022-12-08T21:38:06.108Z,46.47
2022-12-08T21:40:35.211Z,49.65
2022-12-08T21:43:03.848Z,44.70
2022-12-08T21:45:33.262Z,38.60
2022-12-08T21:48:03.178Z,44.58
2022-12-08T21:50:32.739Z,42.88
2022-12-08T21:53:00.443Z,48.42
2022-12-08T21:55:27.332Z,49.13
2022-12-08T21:57:54.125Z,40.70
2022-12-08T22:00:21.636Z,51.45
2022-12-08T22:02:48.887Z,50.45
2022-12-08T22:05:15.837Z,57.15
2022-12-08T22:07:42.712Z,55.03
2022-12-08T22:10:10.814Z,61.08
2022-12-08T22:12:38.171Z,52.45
2022-12-08T22:15:07.185Z,51.72
2022-12-08T22:17:39.441Z,47.97
2022-12-08T22:20:08.660Z,50.17
2022-12-08T22:22:35.924Z,48.95
2022-12-08T22:25:04.477Z,48.05
2022-12-08T22:27:33.053Z,60.03
2022-12-08T22:29:59.805Z,52.10
2022-12-08T22:32:28.874Z,62.90
2022-12-08T22:34:56.277Z,57.80
2022-12-08T22:37:22.939Z,54.40
2022-12-08T22:39:49.573Z,54.47
2022-12-08T22:42:16.313Z,54.65
2022-12-08T22:44:42.938Z,47.80
2022-12-08T22:47:09.676Z,51.13
2022-12-08T22:49:39.823Z,44.70
2022-12-08T22:52:06.701Z,56.38
2022-12-08T22:54:33.359Z,48.65
2022-12-08T22:57:00.137Z,52.75
2022-12-08T22:59:33.295Z,49.22
2022-12-08T23:02:00.327Z,52.10
2022-12-08T23:04:27.412Z,57.55
2022-12-08T23:06:54.185Z,56.50
2022-12-08T23:09:21.397Z,50.20
2022-12-08T23:11:48.080Z,50.75
2022-12-08T23:14:14.833Z,47.90
2022-12-08T23:16:41.646Z,51.72
2022-12-08T23:19:08.640Z,55.00
2022-12-08T23:21:35.559Z,49.10
2022-12-08T23:24:02.574Z,55.30
2022-12-08T23:26:32.115Z,46.42
2022-12-08T23:28:59.723Z,47.80
2022-12-08T23:31:27.413Z,48.67
2022-12-08T23:33:54.727Z,52.83
2022-12-08T23:36:25.036Z,49.67
2022-12-08T23:38:52.495Z,49.15
2022-12-08T23:41:19.452Z,49.47
2022-12-08T23:43:48.414Z,42.53
2022-12-08T23:46:17.298Z,45.08
2022-12-08T23:48:44.248Z,44.15
2022-12-08T23:51:12.097Z,43.88
2022-12-08T23:53:39.092Z,40.15
2022-12-08T23:56:08.298Z,41.42
2022-12-08T23:58:36.124Z,48.83
